WMT5VV LHBP-EDJA
Flight info
| Callsign | WMT5VV |
|---|---|
| Flight time | 1h 2m |
| Altitude | 24000 |
| Route | GILEP DCT ZOLKU DCT TEKNO DCT ABETI/N0442F380 DCT LIMRA DCT NANIT DCT ERKIR L608 KPT KPT1C |
| Aircraft | A321/M-SDE1E2E3FGIJ1J4RWXY/LB1 |
Departure
| Time | 2026-04-23 11:58 |
|---|---|
| Airport | Budapest Liszt Ferenc International Airport (LHBP) |
Arrival
| Time | 2026-04-23 13:00 |
|---|---|
| Airport | Memmingen Allgau Airport (EDJA) |
| Time | Latitude | Longitude | Altitude | Speed | Heading |
|---|---|---|---|---|---|
| 2026-04-23 11:36 | 47.43511 | 19.26478 | 458 ft | 0 kts | 222° |
| 2026-04-23 11:49 | 47.43519 | 19.26490 | 456 ft | 3 kts | 228° |
| 2026-04-23 11:50 | 47.43531 | 19.26513 | 458 ft | 3 kts | 246° |
| 2026-04-23 11:50 | 47.43537 | 19.26540 | 458 ft | 3 kts | 274° |
| 2026-04-23 11:50 | 47.43533 | 19.26564 | 457 ft | 2 kts | 308° |
| 2026-04-23 11:50 | 47.43530 | 19.26569 | 453 ft | 0 kts | 312° |
| 2026-04-23 11:53 | 47.43531 | 19.26567 | 456 ft | 1 kts | 312° |
| 2026-04-23 11:53 | 47.43546 | 19.26544 | 458 ft | 5 kts | 312° |
| 2026-04-23 11:53 | 47.43573 | 19.26500 | 457 ft | 7 kts | 312° |
| 2026-04-23 11:53 | 47.43609 | 19.26441 | 458 ft | 9 kts | 312° |
| 2026-04-23 11:54 | 47.43654 | 19.26368 | 458 ft | 10 kts | 310° |
| 2026-04-23 11:54 | 47.43677 | 19.26267 | 458 ft | 12 kts | 271° |
| 2026-04-23 11:54 | 47.43675 | 19.26140 | 457 ft | 11 kts | 268° |
| 2026-04-23 11:54 | 47.43703 | 19.26026 | 457 ft | 13 kts | 308° |
| 2026-04-23 11:55 | 47.43731 | 19.25927 | 457 ft | 11 kts | 256° |
| 2026-04-23 11:55 | 47.43675 | 19.25832 | 457 ft | 14 kts | 222° |
| 2026-04-23 11:55 | 47.43600 | 19.25731 | 457 ft | 16 kts | 222° |
| 2026-04-23 11:55 | 47.43512 | 19.25612 | 457 ft | 18 kts | 222° |
| 2026-04-23 11:56 | 47.43413 | 19.25479 | 457 ft | 20 kts | 222° |
| 2026-04-23 11:56 | 47.43306 | 19.25336 | 457 ft | 21 kts | 221° |
| 2026-04-23 11:56 | 47.43193 | 19.25185 | 457 ft | 22 kts | 222° |
| 2026-04-23 11:56 | 47.43118 | 19.25080 | 458 ft | 9 kts | 231° |
| 2026-04-23 11:57 | 47.43096 | 19.24996 | 458 ft | 10 kts | 262° |
| 2026-04-23 11:57 | 47.43118 | 19.24911 | 458 ft | 6 kts | 313° |
| 2026-04-23 11:57 | 47.43123 | 19.24903 | 458 ft | 0 kts | 313° |
| 2026-04-23 11:57 | 47.43140 | 19.24875 | 457 ft | 26 kts | 313° |
| 2026-04-23 11:58 | 47.43460 | 19.24359 | 452 ft | 107 kts | 312° |
| 2026-04-23 11:58 | 47.44090 | 19.23349 | 695 ft | 145 kts | 313° |
| 2026-04-23 11:58 | 47.44792 | 19.22236 | 1515 ft | 149 kts | 315° |
| 2026-04-23 11:58 | 47.45533 | 19.21049 | 2115 ft | 168 kts | 314° |
| 2026-04-23 11:59 | 47.46374 | 19.19687 | 2529 ft | 192 kts | 313° |
| 2026-04-23 11:59 | 47.47317 | 19.18143 | 3088 ft | 213 kts | 310° |
| 2026-04-23 11:59 | 47.47936 | 19.16037 | 3695 ft | 239 kts | 280° |
| 2026-04-23 11:59 | 47.48002 | 19.13518 | 4560 ft | 249 kts | 275° |
| 2026-04-23 12:00 | 47.48025 | 19.10927 | 5523 ft | 255 kts | 275° |
| 2026-04-23 12:00 | 47.48042 | 19.08264 | 6396 ft | 264 kts | 276° |
| 2026-04-23 12:00 | 47.48054 | 19.05509 | 7196 ft | 271 kts | 276° |
| 2026-04-23 12:00 | 47.48067 | 19.02699 | 8086 ft | 276 kts | 276° |
| 2026-04-23 12:01 | 47.48081 | 18.99879 | 8954 ft | 280 kts | 276° |
| 2026-04-23 12:01 | 47.48096 | 18.96974 | 9826 ft | 285 kts | 276° |
| 2026-04-23 12:01 | 47.48113 | 18.94001 | 10482 ft | 298 kts | 276° |
| 2026-04-23 12:01 | 47.48138 | 18.90813 | 10810 ft | 322 kts | 276° |
| 2026-04-23 12:02 | 47.48162 | 18.87441 | 11399 ft | 333 kts | 276° |
| 2026-04-23 12:02 | 47.48181 | 18.83989 | 12144 ft | 339 kts | 275° |
| 2026-04-23 12:02 | 47.48198 | 18.80477 | 12934 ft | 344 kts | 276° |
| 2026-04-23 12:02 | 47.48213 | 18.76909 | 13712 ft | 350 kts | 276° |
| 2026-04-23 12:03 | 47.48228 | 18.73287 | 14412 ft | 355 kts | 276° |
| 2026-04-23 12:03 | 47.48242 | 18.69611 | 15089 ft | 360 kts | 275° |
| 2026-04-23 12:03 | 47.48257 | 18.65885 | 15783 ft | 365 kts | 275° |
| 2026-04-23 12:03 | 47.48273 | 18.62106 | 16481 ft | 370 kts | 275° |
| 2026-04-23 12:04 | 47.48287 | 18.58276 | 17196 ft | 375 kts | 275° |
| 2026-04-23 12:04 | 47.48300 | 18.54391 | 17896 ft | 380 kts | 275° |
| 2026-04-23 12:04 | 47.48311 | 18.50460 | 18570 ft | 385 kts | 275° |
| 2026-04-23 12:04 | 47.48322 | 18.46486 | 19202 ft | 389 kts | 274° |
| 2026-04-23 12:05 | 47.48329 | 18.42475 | 19849 ft | 392 kts | 274° |
| 2026-04-23 12:05 | 47.48336 | 18.38432 | 20518 ft | 395 kts | 274° |
| 2026-04-23 12:05 | 47.48341 | 18.34358 | 21193 ft | 398 kts | 274° |
| 2026-04-23 12:05 | 47.48344 | 18.30255 | 21868 ft | 401 kts | 274° |
| 2026-04-23 12:06 | 47.48439 | 18.26138 | 22537 ft | 401 kts | 280° |
| 2026-04-23 12:06 | 47.48737 | 18.23451 | 22982 ft | 399 kts | 287° |
| 2026-04-23 12:06 | 47.50068 | 18.15428 | 24180 ft | 405 kts | 288° |
| 2026-04-23 12:07 | 47.50743 | 18.11364 | 24706 ft | 408 kts | 288° |
| 2026-04-23 12:07 | 47.51420 | 18.07275 | 25228 ft | 411 kts | 288° |
| 2026-04-23 12:07 | 47.52102 | 18.03149 | 25711 ft | 415 kts | 288° |
| 2026-04-23 12:07 | 47.52785 | 17.98988 | 26216 ft | 418 kts | 288° |
| 2026-04-23 12:08 | 47.53471 | 17.94797 | 26705 ft | 421 kts | 287° |
| 2026-04-23 12:08 | 47.54160 | 17.90567 | 27190 ft | 424 kts | 287° |
| 2026-04-23 12:08 | 47.54850 | 17.86312 | 27670 ft | 427 kts | 287° |
| 2026-04-23 12:08 | 47.55546 | 17.82019 | 28152 ft | 430 kts | 287° |
| 2026-04-23 12:09 | 47.56247 | 17.77703 | 28615 ft | 433 kts | 288° |
| 2026-04-23 12:09 | 47.56969 | 17.73363 | 29088 ft | 436 kts | 288° |
| 2026-04-23 12:09 | 47.57704 | 17.68997 | 29540 ft | 439 kts | 288° |
| 2026-04-23 12:09 | 47.58447 | 17.64597 | 29994 ft | 442 kts | 288° |
| 2026-04-23 12:10 | 47.59194 | 17.60165 | 30394 ft | 445 kts | 288° |
| 2026-04-23 12:10 | 47.59941 | 17.55711 | 30740 ft | 448 kts | 288° |
| 2026-04-23 12:10 | 47.60689 | 17.51217 | 31090 ft | 451 kts | 288° |
| 2026-04-23 12:10 | 47.61438 | 17.46692 | 31429 ft | 454 kts | 288° |
| 2026-04-23 12:11 | 47.62191 | 17.42129 | 31772 ft | 457 kts | 288° |
| 2026-04-23 12:11 | 47.62923 | 17.37517 | 32123 ft | 461 kts | 287° |
| 2026-04-23 12:11 | 47.63590 | 17.32872 | 32609 ft | 461 kts | 286° |
| 2026-04-23 12:11 | 47.64209 | 17.28213 | 33098 ft | 461 kts | 285° |
| 2026-04-23 12:12 | 47.64809 | 17.23542 | 33563 ft | 461 kts | 285° |
| 2026-04-23 12:12 | 47.65412 | 17.18868 | 34028 ft | 461 kts | 285° |
| 2026-04-23 12:12 | 47.66024 | 17.14200 | 34444 ft | 461 kts | 285° |
| 2026-04-23 12:12 | 47.66646 | 17.09539 | 34866 ft | 460 kts | 285° |
| 2026-04-23 12:13 | 47.67272 | 17.04893 | 35289 ft | 459 kts | 285° |
| 2026-04-23 12:13 | 47.67891 | 17.00255 | 35754 ft | 458 kts | 285° |
| 2026-04-23 12:13 | 47.68449 | 16.95591 | 36089 ft | 459 kts | 283° |
| 2026-04-23 12:13 | 47.68940 | 16.90919 | 36173 ft | 456 kts | 283° |
| 2026-04-23 12:14 | 47.69804 | 16.81750 | 36192 ft | 449 kts | 282° |
| 2026-04-23 12:14 | 47.70671 | 16.72585 | 36191 ft | 448 kts | 283° |
| 2026-04-23 12:15 | 47.71579 | 16.63434 | 36188 ft | 448 kts | 283° |
| 2026-04-23 12:15 | 47.72497 | 16.54287 | 36191 ft | 448 kts | 283° |
| 2026-04-23 12:16 | 47.73397 | 16.45118 | 36203 ft | 449 kts | 283° |
| 2026-04-23 12:16 | 47.74286 | 16.35930 | 36205 ft | 450 kts | 283° |
| 2026-04-23 12:17 | 47.75170 | 16.26732 | 36205 ft | 450 kts | 283° |
| 2026-04-23 12:17 | 47.76047 | 16.17532 | 36204 ft | 450 kts | 283° |
| 2026-04-23 12:18 | 47.76919 | 16.08320 | 36212 ft | 450 kts | 283° |
| 2026-04-23 12:18 | 47.77782 | 15.99106 | 36208 ft | 450 kts | 283° |
| 2026-04-23 12:19 | 47.78641 | 15.89876 | 36212 ft | 451 kts | 283° |
| 2026-04-23 12:19 | 47.79488 | 15.80642 | 36211 ft | 451 kts | 283° |
| 2026-04-23 12:20 | 47.80327 | 15.71405 | 36211 ft | 451 kts | 283° |
| 2026-04-23 12:20 | 47.81168 | 15.62161 | 36212 ft | 451 kts | 283° |
| 2026-04-23 12:21 | 47.81997 | 15.52909 | 36220 ft | 452 kts | 283° |
| 2026-04-23 12:21 | 47.82813 | 15.43642 | 36227 ft | 452 kts | 283° |
| 2026-04-23 12:22 | 47.83625 | 15.34362 | 36223 ft | 452 kts | 283° |
| 2026-04-23 12:22 | 47.84435 | 15.25085 | 36227 ft | 452 kts | 283° |
| 2026-04-23 12:23 | 47.85239 | 15.15863 | 36227 ft | 453 kts | 282° |
| 2026-04-23 12:23 | 47.86028 | 15.06556 | 36233 ft | 454 kts | 282° |
| 2026-04-23 12:24 | 47.86810 | 14.97232 | 36239 ft | 454 kts | 282° |
| 2026-04-23 12:24 | 47.87591 | 14.87893 | 36244 ft | 455 kts | 282° |
| 2026-04-23 12:25 | 47.88369 | 14.78543 | 36248 ft | 455 kts | 282° |
| 2026-04-23 12:25 | 47.89138 | 14.69184 | 36250 ft | 455 kts | 282° |
| 2026-04-23 12:26 | 47.89897 | 14.59820 | 36254 ft | 456 kts | 282° |
| 2026-04-23 12:26 | 47.90638 | 14.50436 | 36264 ft | 457 kts | 279° |
| 2026-04-23 12:27 | 47.90106 | 14.40926 | 36263 ft | 468 kts | 259° |
| 2026-04-23 12:27 | 47.88014 | 14.31673 | 36263 ft | 472 kts | 253° |
| 2026-04-23 12:28 | 47.85832 | 14.22467 | 36257 ft | 472 kts | 254° |
| 2026-04-23 12:28 | 47.83640 | 14.13248 | 36269 ft | 473 kts | 253° |
| 2026-04-23 12:29 | 47.81438 | 14.04037 | 36281 ft | 472 kts | 253° |
| 2026-04-23 12:29 | 47.79224 | 13.94836 | 36280 ft | 472 kts | 253° |
| 2026-04-23 12:30 | 47.77010 | 13.85633 | 36278 ft | 473 kts | 253° |
| 2026-04-23 12:30 | 47.74786 | 13.76432 | 36283 ft | 474 kts | 253° |
| 2026-04-23 12:31 | 47.72552 | 13.67228 | 36292 ft | 474 kts | 253° |
| 2026-04-23 12:31 | 47.70304 | 13.58034 | 36292 ft | 474 kts | 252° |
| 2026-04-23 12:32 | 47.68059 | 13.48848 | 36291 ft | 473 kts | 252° |
| 2026-04-23 12:32 | 47.65804 | 13.39667 | 36297 ft | 474 kts | 252° |
| 2026-04-23 12:33 | 47.63536 | 13.30501 | 36304 ft | 473 kts | 252° |
| 2026-04-23 12:33 | 47.61269 | 13.21354 | 36304 ft | 473 kts | 252° |
| 2026-04-23 12:34 | 47.59009 | 13.12282 | 36305 ft | 473 kts | 252° |
| 2026-04-23 12:34 | 47.56728 | 13.03156 | 36303 ft | 472 kts | 252° |
| 2026-04-23 12:35 | 47.54437 | 12.94042 | 36296 ft | 472 kts | 251° |
| 2026-04-23 12:35 | 47.52146 | 12.84934 | 36292 ft | 472 kts | 251° |
| 2026-04-23 12:36 | 47.49846 | 12.75836 | 36283 ft | 472 kts | 251° |
| 2026-04-23 12:36 | 47.47533 | 12.66744 | 36268 ft | 473 kts | 251° |
| 2026-04-23 12:37 | 47.45208 | 12.57619 | 35870 ft | 476 kts | 251° |
| 2026-04-23 12:37 | 47.44039 | 12.53038 | 35367 ft | 476 kts | 251° |
| 2026-04-23 12:37 | 47.42869 | 12.48471 | 34878 ft | 476 kts | 251° |
| 2026-04-23 12:38 | 47.41777 | 12.43868 | 34397 ft | 473 kts | 258° |
| 2026-04-23 12:38 | 47.41236 | 12.39130 | 33865 ft | 466 kts | 271° |
| 2026-04-23 12:38 | 47.41320 | 12.34400 | 33327 ft | 456 kts | 283° |
| 2026-04-23 12:38 | 47.41989 | 12.29884 | 32792 ft | 446 kts | 294° |
| 2026-04-23 12:39 | 47.43184 | 12.25729 | 32272 ft | 435 kts | 305° |
| 2026-04-23 12:39 | 47.44760 | 12.21968 | 31759 ft | 428 kts | 309° |
| 2026-04-23 12:39 | 47.46359 | 12.18270 | 31252 ft | 426 kts | 308° |
| 2026-04-23 12:39 | 47.47939 | 12.14586 | 30760 ft | 424 kts | 308° |
| 2026-04-23 12:40 | 47.49510 | 12.10907 | 30257 ft | 421 kts | 308° |
| 2026-04-23 12:40 | 47.51064 | 12.07254 | 29691 ft | 418 kts | 308° |
| 2026-04-23 12:40 | 47.52599 | 12.03612 | 29128 ft | 418 kts | 305° |
| 2026-04-23 12:40 | 47.53818 | 11.99692 | 28574 ft | 422 kts | 294° |
| 2026-04-23 12:41 | 47.54558 | 11.95476 | 28043 ft | 424 kts | 286° |
| 2026-04-23 12:41 | 47.55153 | 11.91210 | 27511 ft | 422 kts | 286° |
| 2026-04-23 12:41 | 47.55742 | 11.86966 | 26993 ft | 420 kts | 286° |
| 2026-04-23 12:41 | 47.56327 | 11.82744 | 26483 ft | 418 kts | 285° |
| 2026-04-23 12:42 | 47.56911 | 11.78534 | 25999 ft | 417 kts | 285° |
| 2026-04-23 12:42 | 47.57484 | 11.74345 | 25555 ft | 414 kts | 285° |
| 2026-04-23 12:42 | 47.58032 | 11.70169 | 25125 ft | 412 kts | 284° |
| 2026-04-23 12:42 | 47.58563 | 11.66015 | 24694 ft | 409 kts | 284° |
| 2026-04-23 12:43 | 47.59079 | 11.61942 | 24277 ft | 407 kts | 284° |
| 2026-04-23 12:43 | 47.59607 | 11.57776 | 23848 ft | 405 kts | 284° |
| 2026-04-23 12:43 | 47.60117 | 11.53743 | 23366 ft | 403 kts | 284° |
| 2026-04-23 12:43 | 47.60632 | 11.49683 | 22876 ft | 400 kts | 284° |
| 2026-04-23 12:44 | 47.61143 | 11.45645 | 22390 ft | 397 kts | 284° |
| 2026-04-23 12:44 | 47.61648 | 11.41637 | 21915 ft | 394 kts | 284° |
| 2026-04-23 12:44 | 47.62148 | 11.37663 | 21450 ft | 391 kts | 284° |
| 2026-04-23 12:44 | 47.62640 | 11.33720 | 20992 ft | 387 kts | 284° |
| 2026-04-23 12:45 | 47.63127 | 11.29812 | 20532 ft | 384 kts | 284° |
| 2026-04-23 12:45 | 47.63611 | 11.25932 | 20099 ft | 381 kts | 284° |
| 2026-04-23 12:45 | 47.64091 | 11.22093 | 19665 ft | 377 kts | 284° |
| 2026-04-23 12:45 | 47.64567 | 11.18290 | 19236 ft | 374 kts | 284° |
| 2026-04-23 12:46 | 47.64726 | 11.17013 | 19094 ft | 373 kts | 284° |
| 2026-04-23 12:46 | 47.65068 | 11.14240 | 18781 ft | 370 kts | 284° |
| 2026-04-23 12:46 | 47.65532 | 11.10501 | 18330 ft | 367 kts | 284° |
| 2026-04-23 12:46 | 47.65991 | 11.06794 | 17841 ft | 364 kts | 284° |
| 2026-04-23 12:47 | 47.66443 | 11.03110 | 17372 ft | 361 kts | 283° |
| 2026-04-23 12:47 | 47.66888 | 10.99461 | 16901 ft | 358 kts | 284° |
| 2026-04-23 12:47 | 47.67326 | 10.95869 | 16425 ft | 346 kts | 284° |
| 2026-04-23 12:47 | 47.67740 | 10.92433 | 15974 ft | 335 kts | 284° |
| 2026-04-23 12:48 | 47.68149 | 10.89051 | 15527 ft | 331 kts | 283° |
| 2026-04-23 12:48 | 47.68555 | 10.85706 | 15083 ft | 328 kts | 283° |
| 2026-04-23 12:48 | 47.68958 | 10.82388 | 14644 ft | 326 kts | 283° |
| 2026-04-23 12:48 | 47.69350 | 10.79137 | 14218 ft | 323 kts | 283° |
| 2026-04-23 12:49 | 47.69751 | 10.75823 | 13740 ft | 321 kts | 283° |
| 2026-04-23 12:49 | 47.70139 | 10.72617 | 13267 ft | 319 kts | 283° |
| 2026-04-23 12:49 | 47.70526 | 10.69390 | 12795 ft | 316 kts | 283° |
| 2026-04-23 12:49 | 47.70906 | 10.66187 | 12329 ft | 314 kts | 283° |
| 2026-04-23 12:50 | 47.71285 | 10.63002 | 11868 ft | 312 kts | 283° |
| 2026-04-23 12:50 | 47.71661 | 10.59847 | 11414 ft | 309 kts | 283° |
| 2026-04-23 12:50 | 47.72034 | 10.56710 | 10964 ft | 308 kts | 282° |
| 2026-04-23 12:50 | 47.72402 | 10.53593 | 10523 ft | 305 kts | 282° |
| 2026-04-23 12:51 | 47.72757 | 10.50540 | 10071 ft | 297 kts | 282° |
| 2026-04-23 12:51 | 47.73108 | 10.47541 | 9594 ft | 293 kts | 282° |
| 2026-04-23 12:51 | 47.73457 | 10.44569 | 9166 ft | 291 kts | 282° |
| 2026-04-23 12:51 | 47.73803 | 10.41617 | 8778 ft | 289 kts | 282° |
| 2026-04-23 12:52 | 47.74149 | 10.38677 | 8390 ft | 288 kts | 282° |
| 2026-04-23 12:52 | 47.74501 | 10.35754 | 8012 ft | 286 kts | 284° |
| 2026-04-23 12:52 | 47.75112 | 10.32961 | 7636 ft | 284 kts | 293° |
| 2026-04-23 12:52 | 47.75837 | 10.30242 | 7262 ft | 282 kts | 292° |
| 2026-04-23 12:53 | 47.76553 | 10.27535 | 6894 ft | 281 kts | 292° |
| 2026-04-23 12:53 | 47.77263 | 10.24843 | 6561 ft | 279 kts | 292° |
| 2026-04-23 12:53 | 47.77966 | 10.22161 | 6260 ft | 278 kts | 292° |
| 2026-04-23 12:53 | 47.78666 | 10.19491 | 5954 ft | 276 kts | 292° |
| 2026-04-23 12:54 | 47.79359 | 10.16837 | 5642 ft | 274 kts | 293° |
| 2026-04-23 12:54 | 47.80048 | 10.14196 | 5330 ft | 270 kts | 293° |
| 2026-04-23 12:54 | 47.80737 | 10.11690 | 5060 ft | 253 kts | 300° |
| 2026-04-23 12:54 | 47.81689 | 10.09552 | 4993 ft | 248 kts | 313° |
| 2026-04-23 12:55 | 47.82939 | 10.07808 | 5000 ft | 246 kts | 326° |
| 2026-04-23 12:55 | 47.83889 | 10.06904 | 4952 ft | 242 kts | 332° |
| 2026-04-23 12:55 | 47.85285 | 10.05678 | 4660 ft | 225 kts | 332° |
| 2026-04-23 12:55 | 47.87008 | 10.04274 | 4146 ft | 207 kts | 343° |
| 2026-04-23 12:56 | 47.88364 | 10.03912 | 4036 ft | 193 kts | 1° |
| 2026-04-23 12:56 | 47.89645 | 10.04171 | 4011 ft | 184 kts | 17° |
| 2026-04-23 12:56 | 47.90800 | 10.04961 | 4007 ft | 183 kts | 33° |
| 2026-04-23 12:56 | 47.91473 | 10.05768 | 4002 ft | 184 kts | 45° |
| 2026-04-23 12:57 | 47.92210 | 10.07220 | 4027 ft | 169 kts | 58° |
| 2026-04-23 12:57 | 47.92806 | 10.08709 | 4021 ft | 164 kts | 58° |
| 2026-04-23 12:57 | 47.93376 | 10.10134 | 4007 ft | 154 kts | 57° |
| 2026-04-23 12:57 | 47.93901 | 10.11447 | 3790 ft | 142 kts | 57° |
| 2026-04-23 12:58 | 47.94395 | 10.12684 | 3675 ft | 138 kts | 52° |
| 2026-04-23 12:58 | 47.94880 | 10.13901 | 3473 ft | 137 kts | 56° |
| 2026-04-23 12:58 | 47.95370 | 10.15128 | 3300 ft | 137 kts | 56° |
| 2026-04-23 12:58 | 47.95854 | 10.16340 | 3135 ft | 135 kts | 54° |
| 2026-04-23 12:59 | 47.96331 | 10.17540 | 2927 ft | 135 kts | 58° |
| 2026-04-23 12:59 | 47.96809 | 10.18750 | 2750 ft | 135 kts | 57° |
| 2026-04-23 12:59 | 47.97296 | 10.19949 | 2550 ft | 135 kts | 57° |
| 2026-04-23 12:59 | 47.97771 | 10.21158 | 2359 ft | 135 kts | 57° |
| 2026-04-23 13:00 | 47.98252 | 10.22365 | 2160 ft | 136 kts | 58° |
| 2026-04-23 13:00 | 47.98708 | 10.23516 | 2082 ft | 112 kts | 59° |
| 2026-04-23 13:00 | 47.99016 | 10.24292 | 2071 ft | 62 kts | 59° |
| 2026-04-23 13:00 | 47.99149 | 10.24627 | 2070 ft | 13 kts | 59° |
| 2026-04-23 13:01 | 47.99196 | 10.24746 | 2070 ft | 18 kts | 59° |
| 2026-04-23 13:01 | 47.99275 | 10.24944 | 2067 ft | 24 kts | 59° |
| 2026-04-23 13:01 | 47.99364 | 10.25169 | 2064 ft | 26 kts | 59° |
| 2026-04-23 13:01 | 47.99462 | 10.25413 | 2061 ft | 27 kts | 59° |
| 2026-04-23 13:02 | 47.99518 | 10.25585 | 2060 ft | 10 kts | 83° |
| 2026-04-23 13:02 | 47.99534 | 10.25601 | 2059 ft | 2 kts | 287° |
| 2026-04-23 13:02 | 47.99520 | 10.25563 | 2060 ft | 6 kts | 242° |
| 2026-04-23 13:02 | 47.99493 | 10.25496 | 2060 ft | 10 kts | 240° |
| 2026-04-23 13:03 | 47.99453 | 10.25391 | 2061 ft | 14 kts | 240° |
| 2026-04-23 13:03 | 47.99396 | 10.25248 | 2062 ft | 18 kts | 239° |
| 2026-04-23 13:03 | 47.99330 | 10.25082 | 2065 ft | 20 kts | 240° |
| 2026-04-23 13:03 | 47.99256 | 10.24894 | 2068 ft | 22 kts | 239° |
| 2026-04-23 13:04 | 47.99173 | 10.24685 | 2070 ft | 25 kts | 239° |
| 2026-04-23 13:04 | 47.99080 | 10.24450 | 2071 ft | 27 kts | 239° |
| 2026-04-23 13:04 | 47.98982 | 10.24206 | 2073 ft | 27 kts | 239° |
| 2026-04-23 13:04 | 47.98886 | 10.23960 | 2074 ft | 27 kts | 240° |
| 2026-04-23 13:05 | 47.98835 | 10.23797 | 2078 ft | 12 kts | 283° |
| 2026-04-23 13:05 | 47.98897 | 10.23709 | 2078 ft | 13 kts | 312° |
| 2026-04-23 13:05 | 47.98893 | 10.23551 | 2078 ft | 16 kts | 250° |
| 2026-04-23 13:05 | 47.98863 | 10.23427 | 2082 ft | 13 kts | 250° |
| 2026-04-23 13:06 | 47.98824 | 10.23237 | 2079 ft | 5 kts | 285° |
| 2026-04-23 13:06 | 47.98855 | 10.23224 | 2078 ft | 4 kts | 22° |
| 2026-04-23 13:06 | 47.98867 | 10.23239 | 2076 ft | 0 kts | 41° |
| 2026-04-23 13:08 | 47.97937 | 10.21569 | 2286 ft | 135 kts | 58° |
| 2026-04-23 13:08 | 47.98526 | 10.23058 | 2086 ft | 121 kts | 59° |
| 2026-04-23 13:09 | 47.97844 | 10.21337 | 2330 ft | 136 kts | 57° |
| 2026-04-23 13:09 | 47.98323 | 10.22544 | 2138 ft | 135 kts | 58° |
| 2026-04-23 13:10 | 47.98765 | 10.23659 | 2081 ft | 104 kts | 59° |
| 2026-04-23 13:10 | 47.98492 | 10.22972 | 2092 ft | 124 kts | 59° |